createdAt,value
2018-03-01T00:02:17.452Z,17.23
2018-03-01T00:04:45.937Z,12.13
2018-03-01T00:07:13.513Z,17.67
2018-03-01T00:09:41.076Z,16.67
2018-03-01T00:12:08.619Z,14.73
2018-03-01T00:14:36.162Z,17.30
2018-03-01T00:17:04.488Z,14.57
2018-03-01T00:19:32.034Z,16.27
2018-03-01T00:21:59.618Z,12.40
2018-03-01T00:24:27.190Z,18.80
2018-03-01T00:26:54.738Z,16.40
2018-03-01T00:29:22.308Z,17.50
2018-03-01T00:31:49.888Z,22.87
2018-03-01T00:34:18.221Z,15.40
2018-03-01T00:36:45.757Z,17.17
2018-03-01T00:39:14.237Z,18.30
2018-03-01T00:41:41.874Z,18.43
2018-03-01T00:44:09.414Z,17.73
2018-03-01T00:46:36.981Z,17.00
2018-03-01T00:49:05.297Z,21.73
2018-03-01T00:51:32.840Z,17.73
2018-03-01T00:54:00.412Z,19.20
2018-03-01T00:56:27.965Z,18.23
2018-03-01T00:58:55.516Z,15.37
2018-03-01T01:01:23.092Z,19.70
2018-03-01T01:03:50.654Z,21.53
2018-03-01T01:06:18.206Z,19.73
2018-03-01T01:08:45.780Z,16.07
2018-03-01T01:11:13.356Z,17.17
2018-03-01T01:13:40.944Z,18.37
2018-03-01T01:16:09.248Z,22.37
2018-03-01T01:18:36.806Z,22.37
2018-03-01T01:21:04.426Z,23.67
2018-03-01T01:23:32.774Z,28.53
2018-03-01T01:26:00.372Z,17.30
2018-03-01T01:28:27.961Z,19.13
2018-03-01T01:30:55.520Z,15.13
2018-03-01T01:33:23.154Z,18.20
2018-03-01T01:35:51.489Z,22.97
2018-03-01T01:38:19.032Z,20.83
2018-03-01T01:40:46.608Z,17.30
2018-03-01T01:43:14.190Z,18.90
2018-03-01T01:45:41.781Z,19.20
2018-03-01T01:48:10.090Z,16.33
2018-03-01T01:50:49.505Z,17.97
2018-03-01T01:53:17.070Z,16.53
2018-03-01T01:55:44.607Z,18.37
2018-03-01T01:58:12.926Z,17.57
2018-03-01T02:00:40.485Z,23.50
2018-03-01T02:03:08.060Z,16.87
2018-03-01T02:05:35.642Z,14.27
2018-03-01T02:08:03.189Z,20.03
2018-03-01T02:10:30.771Z,19.73
2018-03-01T02:12:58.392Z,14.10
2018-03-01T02:15:25.931Z,16.13
2018-03-01T02:17:53.451Z,16.37
2018-03-01T02:20:21.756Z,21.03
2018-03-01T02:22:49.279Z,18.40
2018-03-01T02:25:16.779Z,17.63
2018-03-01T02:27:44.304Z,16.03
2018-03-01T02:30:24.488Z,17.23
2018-03-01T02:32:52.014Z,15.10
2018-03-01T02:35:20.316Z,21.43
2018-03-01T02:37:47.840Z,13.27
2018-03-01T02:40:15.361Z,18.70
2018-03-01T02:42:42.880Z,16.73
2018-03-01T02:45:10.403Z,14.33
2018-03-01T02:47:37.904Z,13.53
2018-03-01T02:50:05.443Z,15.77
2018-03-01T02:52:33.735Z,18.63
2018-03-01T02:55:01.253Z,15.53
2018-03-01T02:57:28.770Z,20.33
2018-03-01T02:59:56.294Z,16.83
2018-03-01T03:02:24.577Z,14.70
2018-03-01T03:04:52.862Z,21.23
2018-03-01T03:07:20.383Z,20.30
2018-03-01T03:09:47.923Z,19.63
2018-03-01T03:12:16.206Z,19.70
2018-03-01T03:14:43.751Z,10.70
2018-03-01T03:17:11.275Z,20.17
2018-03-01T03:19:38.791Z,17.47
2018-03-01T03:22:06.338Z,15.83
2018-03-01T03:24:33.856Z,14.30
2018-03-01T03:27:01.360Z,14.37
2018-03-01T03:29:28.911Z,16.63
2018-03-01T03:31:56.426Z,17.03
2018-03-01T03:34:23.962Z,15.13
2018-03-01T03:36:52.256Z,16.17
2018-03-01T03:39:19.787Z,15.23
2018-03-01T03:41:47.291Z,15.30
2018-03-01T03:44:14.834Z,15.67
2018-03-01T03:46:42.379Z,13.90
2018-03-01T03:49:09.900Z,11.37
2018-03-01T03:51:37.421Z,16.30
2018-03-01T03:54:04.924Z,15.87
2018-03-01T03:56:32.481Z,11.43
2018-03-01T03:58:59.987Z,14.40
2018-03-01T04:01:27.507Z,21.03
2018-03-01T04:03:55.028Z,15.93
2018-03-01T04:06:22.531Z,22.57
2018-03-01T04:08:50.799Z,18.07
2018-03-01T04:11:18.337Z,13.27
2018-03-01T04:13:45.900Z,14.57
2018-03-01T04:16:13.443Z,18.63
2018-03-01T04:18:40.965Z,17.97
2018-03-01T04:21:08.484Z,17.13
2018-03-01T04:23:36.052Z,15.63
2018-03-01T04:26:03.565Z,16.40
2018-03-01T04:28:31.072Z,14.77
2018-03-01T04:30:58.596Z,14.17
2018-03-01T04:33:26.913Z,10.20
2018-03-01T04:35:55.193Z,17.53
2018-03-01T04:38:23.477Z,17.37
2018-03-01T04:40:51.758Z,17.47
2018-03-01T04:43:19.263Z,14.87
2018-03-01T04:45:46.876Z,13.50
2018-03-01T04:48:14.405Z,15.07
2018-03-01T04:50:41.911Z,16.70
2018-03-01T04:53:09.452Z,16.17
2018-03-01T04:55:36.982Z,15.90
2018-03-01T04:58:05.202Z,18.93
2018-03-01T05:00:32.723Z,15.73
2018-03-01T05:03:01.019Z,14.27
2018-03-01T05:05:28.546Z,13.83
2018-03-01T05:07:56.848Z,11.20
2018-03-01T05:10:24.396Z,13.90
2018-03-01T05:12:52.955Z,13.97
2018-03-01T05:15:21.090Z,15.10
2018-03-01T05:17:48.612Z,15.07
2018-03-01T05:20:16.147Z,16.07
2018-03-01T05:22:43.659Z,17.83
2018-03-01T05:25:11.173Z,11.77
2018-03-01T05:27:38.707Z,15.57
2018-03-01T05:30:06.242Z,15.63
2018-03-01T05:32:34.515Z,12.43
2018-03-01T05:35:02.038Z,15.27
2018-03-01T05:37:30.326Z,13.10
2018-03-01T05:39:58.615Z,17.90
2018-03-01T05:42:26.163Z,14.70
2018-03-01T05:44:54.477Z,11.87
2018-03-01T05:47:22.024Z,13.90
2018-03-01T05:49:49.572Z,10.30
2018-03-01T05:52:17.877Z,12.33
2018-03-01T05:54:45.427Z,20.73
2018-03-01T05:57:12.955Z,20.97
2018-03-01T05:59:41.285Z,19.80
2018-03-01T06:02:08.974Z,17.50
2018-03-01T06:04:36.525Z,12.37
2018-03-01T06:07:04.405Z,12.23
2018-03-01T06:09:31.943Z,16.73
2018-03-01T06:11:59.479Z,20.73
2018-03-01T06:14:27.005Z,11.60
2018-03-01T06:16:54.550Z,13.70
2018-03-01T06:19:22.080Z,20.10
2018-03-01T06:21:49.618Z,17.93
2018-03-01T06:24:17.152Z,13.60
2018-03-01T06:26:45.473Z,13.57
2018-03-01T06:29:13.004Z,14.50
2018-03-01T06:31:41.326Z,15.63
2018-03-01T06:34:08.856Z,14.43
2018-03-01T06:36:36.416Z,15.07
2018-03-01T06:39:03.947Z,15.33
2018-03-01T06:41:32.219Z,17.73
2018-03-01T06:43:59.826Z,17.87
2018-03-01T06:46:27.659Z,14.63
2018-03-01T06:48:55.959Z,18.87
2018-03-01T06:51:23.476Z,15.23
2018-03-01T06:53:50.978Z,16.23
2018-03-01T06:56:19.428Z,13.80
2018-03-01T06:58:47.819Z,16.90
2018-03-01T07:01:16.096Z,17.90
2018-03-01T07:03:44.396Z,15.67
2018-03-01T07:06:11.948Z,18.57
2018-03-01T07:08:40.216Z,19.03
2018-03-01T07:11:08.537Z,16.93
2018-03-01T07:13:36.075Z,18.37
2018-03-01T07:16:03.624Z,15.83
2018-03-01T07:18:31.924Z,21.17
2018-03-01T07:20:59.589Z,17.13
2018-03-01T07:23:27.117Z,17.27
2018-03-01T07:25:54.797Z,15.20
2018-03-01T07:28:23.175Z,14.77
2018-03-01T07:30:51.504Z,20.47
2018-03-01T07:33:20.015Z,14.37
2018-03-01T07:35:47.510Z,19.00
2018-03-01T07:38:15.060Z,18.30
2018-03-01T07:40:42.575Z,18.53
2018-03-01T07:43:10.079Z,12.67
2018-03-01T07:45:37.655Z,13.67
2018-03-01T07:48:05.174Z,13.27
2018-03-01T07:50:33.443Z,15.17
2018-03-01T07:53:01.752Z,17.40
2018-03-01T07:55:29.283Z,26.77
2018-03-01T07:57:57.551Z,13.90
2018-03-01T08:00:25.104Z,18.00
2018-03-01T08:02:52.633Z,13.30
2018-03-01T08:05:20.140Z,19.43
2018-03-01T08:07:48.467Z,12.40
2018-03-01T08:10:16.001Z,21.70
2018-03-01T08:12:43.555Z,12.80
2018-03-01T08:15:11.103Z,18.93
2018-03-01T08:17:39.415Z,23.73
2018-03-01T08:20:06.940Z,27.97
2018-03-01T08:22:35.226Z,14.40
2018-03-01T08:25:02.754Z,23.53
2018-03-01T08:27:30.284Z,19.00
2018-03-01T08:29:57.823Z,16.17
2018-03-01T08:32:25.343Z,18.17
2018-03-01T08:34:53.636Z,15.20
2018-03-01T08:37:21.944Z,15.13
2018-03-01T08:39:49.498Z,14.77
2018-03-01T08:42:17.006Z,18.10
2018-03-01T08:44:44.514Z,16.13
2018-03-01T08:47:12.046Z,14.60
2018-03-01T08:49:39.593Z,17.87
2018-03-01T08:52:07.108Z,15.53
2018-03-01T08:54:34.623Z,15.90
2018-03-01T08:57:02.122Z,17.90
2018-03-01T08:59:29.677Z,15.17
2018-03-01T09:01:57.191Z,22.57
2018-03-01T09:04:24.825Z,18.83
2018-03-01T09:06:52.351Z,17.87
2018-03-01T09:09:19.981Z,13.80
2018-03-01T09:11:48.131Z,21.03
2018-03-01T09:14:15.641Z,18.97
2018-03-01T09:16:43.403Z,22.67
2018-03-01T09:19:11.671Z,16.03
2018-03-01T09:21:39.972Z,17.50
2018-03-01T09:24:08.263Z,17.40
2018-03-01T09:26:35.791Z,21.70
2018-03-01T09:29:03.306Z,11.83
2018-03-01T09:31:30.834Z,16.97
2018-03-01T09:33:58.379Z,15.53
2018-03-01T09:36:25.884Z,21.00
2018-03-01T09:38:53.384Z,19.57
2018-03-01T09:41:20.917Z,16.20
2018-03-01T09:43:48.452Z,13.37
2018-03-01T09:46:15.978Z,20.13
2018-03-01T09:48:43.542Z,30.17
2018-03-01T09:51:11.587Z,18.70
2018-03-01T09:53:39.129Z,29.97
2018-03-01T09:56:07.388Z,19.40
2018-03-01T09:58:34.917Z,23.83
2018-03-01T10:01:02.456Z,20.70
2018-03-01T10:03:29.980Z,21.17
2018-03-01T10:05:58.285Z,19.77
2018-03-01T10:08:25.825Z,14.67
2018-03-01T10:10:54.186Z,24.23
2018-03-01T10:13:21.916Z,25.47
2018-03-01T10:15:49.449Z,24.10
2018-03-01T10:18:16.955Z,20.80
2018-03-01T10:20:44.451Z,19.10
2018-03-01T10:23:12.731Z,20.30
2018-03-01T10:25:40.240Z,19.10
2018-03-01T10:28:07.743Z,24.67
2018-03-01T10:30:35.258Z,22.00
2018-03-01T10:33:03.552Z,21.40
2018-03-01T10:35:31.064Z,20.50
2018-03-01T10:37:58.575Z,14.73
2018-03-01T10:40:26.383Z,17.13
2018-03-01T10:42:54.109Z,14.20
2018-03-01T10:45:22.387Z,17.80
2018-03-01T10:47:50.765Z,18.00
2018-03-01T10:50:19.077Z,18.07
2018-03-01T10:52:46.727Z,22.20
2018-03-01T10:55:15.397Z,14.73
2018-03-01T10:57:43.688Z,20.33
2018-03-01T11:00:11.270Z,17.27
2018-03-01T11:02:38.811Z,15.50
2018-03-01T11:05:06.333Z,14.30
2018-03-01T11:07:34.636Z,16.83
2018-03-01T11:10:02.920Z,14.60
2018-03-01T11:12:30.441Z,12.50
2018-03-01T11:14:58.952Z,16.50
2018-03-01T11:17:26.458Z,14.37
2018-03-01T11:19:53.951Z,13.90
2018-03-01T11:22:22.254Z,14.67
2018-03-01T11:24:49.784Z,14.03
2018-03-01T11:27:18.095Z,16.97
2018-03-01T11:29:45.623Z,11.33
2018-03-01T11:32:13.893Z,13.50
2018-03-01T11:34:42.251Z,12.93
2018-03-01T11:37:09.730Z,15.67
2018-03-01T11:39:38.016Z,14.97
2018-03-01T11:42:06.317Z,16.10
2018-03-01T11:44:33.838Z,17.67
2018-03-01T11:47:02.099Z,15.77
2018-03-01T11:49:29.633Z,18.50
2018-03-01T11:51:57.899Z,19.23
2018-03-01T11:54:25.409Z,19.57
2018-03-01T11:56:52.980Z,18.47
2018-03-01T11:59:20.541Z,21.20
2018-03-01T12:01:48.079Z,17.97
2018-03-01T12:04:16.377Z,18.50
2018-03-01T12:06:43.921Z,20.77
2018-03-01T12:09:12.211Z,20.20
2018-03-01T12:11:39.760Z,20.23
2018-03-01T12:14:08.050Z,15.90
2018-03-01T12:16:35.551Z,22.43
2018-03-01T12:19:03.064Z,19.20
2018-03-01T12:21:30.576Z,19.77
2018-03-01T12:23:58.070Z,20.30
2018-03-01T12:26:26.380Z,13.07
2018-03-01T12:28:53.866Z,18.90
2018-03-01T12:31:21.351Z,20.57
2018-03-01T12:33:49.616Z,17.27
2018-03-01T12:36:17.132Z,22.73
2018-03-01T12:38:44.648Z,13.93
2018-03-01T12:41:12.930Z,14.87
2018-03-01T12:43:41.200Z,15.37
2018-03-01T12:46:09.518Z,16.73
2018-03-01T12:48:37.040Z,15.43
2018-03-01T12:51:05.327Z,16.67
2018-03-01T12:53:32.837Z,17.47
2018-03-01T12:56:00.361Z,22.40
2018-03-01T12:58:27.885Z,16.30
2018-03-01T13:00:56.199Z,18.77
2018-03-01T13:03:24.815Z,19.07
2018-03-01T13:05:52.339Z,17.00
2018-03-01T13:08:19.871Z,17.73
2018-03-01T13:10:48.149Z,20.23
2018-03-01T13:13:16.450Z,17.93
2018-03-01T13:15:43.994Z,19.70
2018-03-01T13:18:11.534Z,22.30
2018-03-01T13:20:39.833Z,18.07
2018-03-01T13:23:07.943Z,16.17
2018-03-01T13:25:35.460Z,16.23
2018-03-01T13:28:02.980Z,23.10
2018-03-01T13:30:45.398Z,22.07
2018-03-01T13:33:27.540Z,18.43
2018-03-01T13:35:56.948Z,19.87
2018-03-01T13:38:25.058Z,23.10
2018-03-01T13:40:52.569Z,17.03
2018-03-01T13:43:20.108Z,20.77
2018-03-01T13:45:49.063Z,18.43
2018-03-01T13:48:16.716Z,23.43
2018-03-01T13:50:45.378Z,20.07
2018-03-01T13:53:12.947Z,20.13
2018-03-01T13:55:40.444Z,23.23
2018-03-01T13:58:08.318Z,23.03
2018-03-01T14:00:35.849Z,20.97
2018-03-01T14:03:04.392Z,17.53
2018-03-01T14:05:31.923Z,19.73
2018-03-01T14:08:00.442Z,20.43
2018-03-01T14:10:28.043Z,18.37
2018-03-01T14:12:55.706Z,27.77
2018-03-01T14:15:23.645Z,21.33
2018-03-01T14:18:06.976Z,16.30
2018-03-01T14:20:34.475Z,21.87
2018-03-01T14:23:12.732Z,20.50
2018-03-01T14:25:40.302Z,22.93
2018-03-01T14:31:10.642Z,25.30
2018-03-01T14:33:38.452Z,22.57
2018-03-01T14:36:05.955Z,23.37
2018-03-01T14:38:33.607Z,23.60
2018-03-01T14:41:01.889Z,19.77
2018-03-01T14:43:29.471Z,19.77
2018-03-01T14:45:58.754Z,23.07
2018-03-01T14:48:26.285Z,22.43
2018-03-01T14:50:53.799Z,24.77
2018-03-01T14:53:21.315Z,21.27
2018-03-01T14:55:49.608Z,22.17
2018-03-01T14:58:18.077Z,22.40
2018-03-01T15:00:46.545Z,23.73
2018-03-01T15:03:14.089Z,24.73
2018-03-01T15:05:41.608Z,23.33
2018-03-01T15:08:12.971Z,21.13
2018-03-01T15:10:40.500Z,25.23
2018-03-01T15:13:08.835Z,23.17
2018-03-01T15:15:36.372Z,28.10
2018-03-01T15:18:04.745Z,25.90
2018-03-01T15:20:32.294Z,27.90
2018-03-01T15:22:59.797Z,29.13
2018-03-01T15:25:27.309Z,22.70
2018-03-01T15:27:54.820Z,32.93
2018-03-01T15:30:23.103Z,29.97
2018-03-01T15:32:50.688Z,28.67
2018-03-01T15:35:19.971Z,23.83
2018-03-01T15:37:47.553Z,24.63
2018-03-01T15:40:15.101Z,32.00
2018-03-01T15:42:43.371Z,25.53
2018-03-01T15:45:10.948Z,27.47
2018-03-01T15:47:40.211Z,27.63
2018-03-01T15:50:07.798Z,26.50
2018-03-01T15:52:36.074Z,28.00
2018-03-01T15:55:04.392Z,28.47
2018-03-01T15:57:31.971Z,24.33
2018-03-01T15:59:59.478Z,25.13
2018-03-01T16:02:27.754Z,21.27
2018-03-01T16:04:56.068Z,26.73
2018-03-01T16:07:23.610Z,29.57
2018-03-01T16:09:51.126Z,27.50
2018-03-01T16:12:18.615Z,26.30
2018-03-01T16:14:47.980Z,30.27
2018-03-01T16:17:15.513Z,31.80
2018-03-01T16:19:43.044Z,22.87
2018-03-01T16:22:10.572Z,26.70
2018-03-01T16:24:40.583Z,31.00
2018-03-01T16:27:08.092Z,31.67
2018-03-01T16:29:35.594Z,31.20
2018-03-01T16:32:04.087Z,41.47
2018-03-01T16:34:31.631Z,31.33
2018-03-01T16:36:59.201Z,29.53
2018-03-01T16:39:26.766Z,21.97
2018-03-01T16:41:55.169Z,30.93
2018-03-01T16:44:22.752Z,28.00
2018-03-01T16:46:50.359Z,24.83
2018-03-01T16:49:18.020Z,35.27
2018-03-01T16:51:45.639Z,29.30
2018-03-01T16:54:14.186Z,31.43
2018-03-01T16:56:42.057Z,27.30
2018-03-01T16:59:10.758Z,34.60
2018-03-01T17:01:39.367Z,36.17
2018-03-01T17:04:07.901Z,33.47
2018-03-01T17:06:35.454Z,32.90
2018-03-01T17:09:03.009Z,26.70
2018-03-01T17:11:30.532Z,28.07
2018-03-01T17:13:58.978Z,32.40
2018-03-01T17:16:26.508Z,32.07
2018-03-01T17:18:54.016Z,27.47
2018-03-01T17:21:21.542Z,31.13
2018-03-01T17:23:49.835Z,29.70
2018-03-01T17:26:17.460Z,31.40
2018-03-01T17:28:45.054Z,32.83
2018-03-01T17:31:12.801Z,29.50
2018-03-01T17:33:40.378Z,31.67
2018-03-01T17:36:08.079Z,30.17
2018-03-01T17:38:36.800Z,30.37
2018-03-01T17:41:04.344Z,31.40
2018-03-01T17:43:31.870Z,28.43
2018-03-01T17:45:59.387Z,34.80
2018-03-01T17:48:26.915Z,29.13
2018-03-01T17:50:55.203Z,31.53
2018-03-01T17:53:23.038Z,30.73
2018-03-01T17:55:51.321Z,32.50
2018-03-01T17:58:19.621Z,31.07
2018-03-01T18:00:47.187Z,30.00
2018-03-01T18:03:14.747Z,36.77
2018-03-01T18:05:42.352Z,29.03
2018-03-01T18:08:09.872Z,31.40
2018-03-01T18:10:37.376Z,40.60
2018-03-01T18:13:04.931Z,29.97
2018-03-01T18:15:33.238Z,29.33
2018-03-01T18:18:01.537Z,30.50
2018-03-01T18:20:29.040Z,33.03
2018-03-01T18:22:56.556Z,29.30
2018-03-01T18:25:24.123Z,35.37
2018-03-01T18:27:51.674Z,31.13
2018-03-01T18:30:19.187Z,28.13
2018-03-01T18:32:46.696Z,30.67
2018-03-01T18:35:14.225Z,18.17
2018-03-01T18:37:43.420Z,31.57
2018-03-01T18:40:11.703Z,30.07
2018-03-01T18:42:39.991Z,28.37
2018-03-01T18:45:07.504Z,36.57
2018-03-01T18:47:35.036Z,33.30
2018-03-01T18:50:02.571Z,30.93
2018-03-01T18:52:30.859Z,29.80
2018-03-01T18:54:58.383Z,28.77
2018-03-01T18:57:25.900Z,26.07
2018-03-01T18:59:53.435Z,30.77
2018-03-01T19:02:21.001Z,30.63
2018-03-01T19:04:48.541Z,30.70
2018-03-01T19:07:16.834Z,29.33
2018-03-01T19:09:44.374Z,27.93
2018-03-01T19:12:12.652Z,28.80
2018-03-01T19:14:40.935Z,30.27
2018-03-01T19:17:08.456Z,38.77
2018-03-01T19:19:36.000Z,30.97
2018-03-01T19:22:03.522Z,34.17
2018-03-01T19:24:31.042Z,28.47
2018-03-01T19:26:58.580Z,31.53
2018-03-01T19:29:26.111Z,36.50
2018-03-01T19:31:53.625Z,29.70
2018-03-01T19:34:21.913Z,30.27
2018-03-01T19:36:50.218Z,36.47
2018-03-01T19:39:17.779Z,28.93
2018-03-01T19:41:45.279Z,28.97
2018-03-01T19:44:12.837Z,37.47
2018-03-01T19:46:40.332Z,44.50
2018-03-01T19:49:07.879Z,34.27
2018-03-01T19:51:35.414Z,27.93
2018-03-01T19:54:02.948Z,31.67
2018-03-01T19:56:30.508Z,32.87
2018-03-01T19:58:58.031Z,31.30
2018-03-01T20:01:25.540Z,34.20
2018-03-01T20:03:53.061Z,33.67
2018-03-01T20:06:20.568Z,27.53
2018-03-01T20:08:48.141Z,30.33
2018-03-01T20:11:15.649Z,31.37
2018-03-01T20:13:43.162Z,30.03
2018-03-01T20:16:10.688Z,33.67
2018-03-01T20:18:38.209Z,29.60
2018-03-01T20:21:05.749Z,31.47
2018-03-01T20:23:33.369Z,31.47
2018-03-01T20:26:00.856Z,35.80
2018-03-01T20:28:29.139Z,35.03
2018-03-01T20:30:56.661Z,37.93
2018-03-01T20:33:24.184Z,33.73
2018-03-01T20:35:51.726Z,28.90
2018-03-01T20:38:19.252Z,27.73
2018-03-01T20:40:47.547Z,30.37
2018-03-01T20:43:15.077Z,36.37
2018-03-01T20:45:42.577Z,32.40
2018-03-01T20:48:10.096Z,38.20
2018-03-01T20:50:38.398Z,30.50
2018-03-01T20:53:06.992Z,35.13
2018-03-01T20:55:34.509Z,35.37
2018-03-01T20:58:02.043Z,33.33
2018-03-01T21:00:29.550Z,33.13
2018-03-01T21:02:57.092Z,27.13
2018-03-01T21:05:24.630Z,34.60
2018-03-01T21:07:52.173Z,33.10
2018-03-01T21:10:19.696Z,40.83
2018-03-01T21:12:47.238Z,28.13
2018-03-01T21:15:15.547Z,35.67
2018-03-01T21:17:43.080Z,33.50
2018-03-01T21:20:11.366Z,33.83
2018-03-01T21:22:38.891Z,34.57
2018-03-01T21:25:07.171Z,34.13
2018-03-01T21:27:35.459Z,27.80
2018-03-01T21:30:03.774Z,33.00
2018-03-01T21:32:31.282Z,33.67
2018-03-01T21:34:58.802Z,36.57
2018-03-01T21:37:26.431Z,34.43
2018-03-01T21:39:53.967Z,34.10
2018-03-01T21:42:34.193Z,32.97
2018-03-01T21:45:01.718Z,35.27
2018-03-01T21:47:29.265Z,31.50
2018-03-01T21:49:56.792Z,31.97
2018-03-01T21:52:25.071Z,32.37
2018-03-01T21:54:54.265Z,41.20
2018-03-01T21:57:22.547Z,33.17
2018-03-01T21:59:50.827Z,38.90
2018-03-01T22:02:19.104Z,31.57
2018-03-01T22:04:47.390Z,35.30
2018-03-01T22:07:14.919Z,38.13
2018-03-01T22:09:43.205Z,34.93
2018-03-01T22:12:11.503Z,32.20
2018-03-01T22:14:39.015Z,31.00
2018-03-01T22:17:06.549Z,31.07
2018-03-01T22:19:34.090Z,33.63
2018-03-01T22:22:01.731Z,33.87
2018-03-01T22:24:30.012Z,34.37
2018-03-01T22:26:57.539Z,33.97
2018-03-01T22:29:25.053Z,37.97
2018-03-01T22:31:52.567Z,37.40
2018-03-01T22:34:20.865Z,34.10
2018-03-01T22:36:48.364Z,38.93
2018-03-01T22:39:16.634Z,36.63
2018-03-01T22:41:44.176Z,38.57
2018-03-01T22:44:11.675Z,37.03
2018-03-01T22:46:39.182Z,38.10
2018-03-01T22:49:07.043Z,37.03
2018-03-01T22:51:34.552Z,40.03
2018-03-01T22:54:02.092Z,36.80
2018-03-01T22:56:29.628Z,39.83
2018-03-01T22:58:57.132Z,36.50
2018-03-01T23:01:24.652Z,42.83
2018-03-01T23:03:52.176Z,39.10
2018-03-01T23:06:20.468Z,34.00
2018-03-01T23:08:48.000Z,39.40
2018-03-01T23:11:16.318Z,34.47
2018-03-01T23:13:43.812Z,32.63
2018-03-01T23:16:11.342Z,40.57
2018-03-01T23:18:38.872Z,35.47
2018-03-01T23:21:06.392Z,33.70
2018-03-01T23:23:33.889Z,37.17
2018-03-01T23:26:01.441Z,37.97
2018-03-01T23:28:29.715Z,32.83
2018-03-01T23:30:57.226Z,37.73
2018-03-01T23:33:24.735Z,35.70
2018-03-01T23:35:53.007Z,31.43
2018-03-01T23:38:21.291Z,35.33
2018-03-01T23:40:48.859Z,37.83
2018-03-01T23:43:16.368Z,34.83
2018-03-01T23:45:43.900Z,31.40
2018-03-01T23:48:11.420Z,30.77
2018-03-01T23:50:39.704Z,31.87
2018-03-01T23:53:07.555Z,36.03
2018-03-01T23:55:35.828Z,36.67
2018-03-01T23:58:04.111Z,32.97
